CheckWX is a tool to help pilots better visualize weather data.  It is not intended as a substitute for an official pre-flight weather briefing.

19:31:32 UTC

KEWR METAR
Newark Liberty International Airport
Newark, New Jersey, USA
Current

41 mins ago

KEWR 271851Z 24013KT 10SM FEW035 BKN048 OVC085 06/M01 A2966 RMK AO2 SLP043 T00611011
Observed
Jan-27 @ 18:51 UTC
Wind
  • 240° at 13 KTS
Visibility
10 SM
Flight Rules
VFR
Cloud Levels
  • Few at 3,500' AGL
  • Broken at 4,800' AGL
  • Overcast at 8,500' AGL
Temperature
C / 43°F
Dewpoint
-1°C / 30°F
Humidity
61%
Altimeter
29.66" Hg
Pressure
1004.42 hPa
Previous

2 hours ago

KEWR 271751Z 24015KT 10SM BKN045 OVC130 06/M01 A2968 RMK AO2 SLP049 T00611011 10067 20022 58013
Observed
Jan-27 @ 17:51 UTC
Wind
  • 240° at 15 KTS
Visibility
10 SM
Flight Rules
VFR
Cloud Levels
  • Broken at 4,500' AGL
  • Overcast at 13,000' AGL
Temperature
C / 43°F
Dewpoint
-1°C / 30°F
Humidity
61%
Altimeter
29.68" Hg
Pressure
1005.12 hPa
Previous

3 hours ago

KEWR 271651Z 25015KT 10SM SCT030 BKN041 OVC130 06/M02 A2970 RMK AO2 SLP057 T00611017
Observed
Jan-27 @ 16:51 UTC
Wind
  • 250° at 15 KTS
Visibility
10 SM
Flight Rules
VFR
Cloud Levels
  • Scattered at 3,000' AGL
  • Broken at 4,100' AGL
  • Overcast at 13,000' AGL
Temperature
C / 43°F
Dewpoint
-2°C / 28°F
Humidity
57%
Altimeter
29.7" Hg
Pressure
1005.72 hPa